sensor_id;sensor_type;location;lat;lon;timestamp;pressure;altitude;pressure_sealevel;temperature;humidity
71716;BME280;59568;52.128;5.434;2023-08-21T00:00:36;102421.91;;;18.10;82.77
71716;BME280;59568;52.128;5.434;2023-08-21T00:03:03;102428.59;;;18.08;82.69
71716;BME280;59568;52.128;5.434;2023-08-21T00:05:30;102437.91;;;18.05;83.18
71716;BME280;59568;52.128;5.434;2023-08-21T00:07:56;102429.50;;;18.03;83.50
71716;BME280;59568;52.128;5.434;2023-08-21T00:10:23;102423.41;;;18.03;83.14
71716;BME280;59568;52.128;5.434;2023-08-21T00:12:49;102428.69;;;18.03;83.62
71716;BME280;59568;52.128;5.434;2023-08-21T00:15:16;102432.41;;;18.02;83.50
71716;BME280;59568;52.128;5.434;2023-08-21T00:17:43;102436.75;;;17.98;83.71
71716;BME280;59568;52.128;5.434;2023-08-21T00:20:10;102434.38;;;17.96;83.36
71716;BME280;59568;52.128;5.434;2023-08-21T00:22:37;102434.69;;;17.94;84.24
71716;BME280;59568;52.128;5.434;2023-08-21T00:25:04;102427.84;;;17.93;84.57
71716;BME280;59568;52.128;5.434;2023-08-21T00:27:30;102433.91;;;17.94;84.43
71716;BME280;59568;52.128;5.434;2023-08-21T00:29:58;102434.19;;;17.92;84.11
71716;BME280;59568;52.128;5.434;2023-08-21T00:32:24;102436.34;;;17.90;83.90
71716;BME280;59568;52.128;5.434;2023-08-21T00:34:51;102430.56;;;17.88;84.01
71716;BME280;59568;52.128;5.434;2023-08-21T00:37:18;102431.47;;;17.84;83.89
71716;BME280;59568;52.128;5.434;2023-08-21T00:39:45;102431.47;;;17.84;83.80
71716;BME280;59568;52.128;5.434;2023-08-21T00:42:12;102439.88;;;17.86;84.16
71716;BME280;59568;52.128;5.434;2023-08-21T00:44:38;102425.09;;;17.85;84.44
71716;BME280;59568;52.128;5.434;2023-08-21T00:47:05;102423.25;;;17.85;84.46
71716;BME280;59568;52.128;5.434;2023-08-21T00:49:32;102427.72;;;17.85;84.64
71716;BME280;59568;52.128;5.434;2023-08-21T00:51:59;102431.47;;;17.84;84.85
71716;BME280;59568;52.128;5.434;2023-08-21T00:54:27;102413.50;;;17.81;84.26
71716;BME280;59568;52.128;5.434;2023-08-21T00:56:54;102427.03;;;17.79;84.63
71716;BME280;59568;52.128;5.434;2023-08-21T00:59:21;102421.25;;;17.77;85.28
71716;BME280;59568;52.128;5.434;2023-08-21T01:01:48;102424.00;;;17.72;85.10
71716;BME280;59568;52.128;5.434;2023-08-21T01:04:15;102424.78;;;17.72;84.89
71716;BME280;59568;52.128;5.434;2023-08-21T01:06:41;102422.44;;;17.71;84.57
71716;BME280;59568;52.128;5.434;2023-08-21T01:09:14;102419.31;;;17.69;85.37
71716;BME280;59568;52.128;5.434;2023-08-21T01:14:54;102418.03;;;17.66;85.40
71716;BME280;59568;52.128;5.434;2023-08-21T01:17:23;102425.19;;;17.66;85.29
71716;BME280;59568;52.128;5.434;2023-08-21T01:19:50;102425.78;;;17.63;85.51
71716;BME280;59568;52.128;5.434;2023-08-21T01:22:19;102426.06;;;17.61;85.21
71716;BME280;59568;52.128;5.434;2023-08-21T01:24:45;102421.06;;;17.60;85.47
71716;BME280;59568;52.128;5.434;2023-08-21T01:27:13;102419.50;;;17.58;85.29
71716;BME280;59568;52.128;5.434;2023-08-21T01:29:40;102419.00;;;17.56;85.40
71716;BME280;59568;52.128;5.434;2023-08-21T01:32:27;102423.50;;;17.56;85.99
71716;BME280;59568;52.128;5.434;2023-08-21T01:34:59;102416.97;;;17.53;85.63
71716;BME280;59568;52.128;5.434;2023-08-21T01:37:26;102423.03;;;17.54;86.00
71716;BME280;59568;52.128;5.434;2023-08-21T01:39:52;102418.50;;;17.54;85.93
71716;BME280;59568;52.128;5.434;2023-08-21T01:42:19;102424.28;;;17.56;85.89
71716;BME280;59568;52.128;5.434;2023-08-21T01:44:45;102428.22;;;17.59;85.94
71716;BME280;59568;52.128;5.434;2023-08-21T01:47:12;102427.72;;;17.57;85.86
71716;BME280;59568;52.128;5.434;2023-08-21T01:49:38;102421.63;;;17.56;86.47
71716;BME280;59568;52.128;5.434;2023-08-21T01:52:05;102436.72;;;17.56;86.41
71716;BME280;59568;52.128;5.434;2023-08-21T01:54:32;102428.03;;;17.55;85.78
71716;BME280;59568;52.128;5.434;2023-08-21T01:56:58;102423.78;;;17.54;86.29
71716;BME280;59568;52.128;5.434;2023-08-21T01:59:25;102415.38;;;17.52;86.14
71716;BME280;59568;52.128;5.434;2023-08-21T02:01:52;102423.91;;;17.49;86.03
71716;BME280;59568;52.128;5.434;2023-08-21T02:04:18;102428.22;;;17.45;86.25
71716;BME280;59568;52.128;5.434;2023-08-21T02:06:45;102430.84;;;17.45;86.28
71716;BME280;59568;52.128;5.434;2023-08-21T02:09:11;102427.25;;;17.41;86.35
71716;BME280;59568;52.128;5.434;2023-08-21T02:11:38;102429.09;;;17.41;86.74
71716;BME280;59568;52.128;5.434;2023-08-21T02:14:04;102426.16;;;17.42;86.73
71716;BME280;59568;52.128;5.434;2023-08-21T02:16:32;102421.66;;;17.43;86.73
71716;BME280;59568;52.128;5.434;2023-08-21T02:18:58;102421.34;;;17.44;86.88
71716;BME280;59568;52.128;5.434;2023-08-21T02:21:24;102420.28;;;17.45;86.57
71716;BME280;59568;52.128;5.434;2023-08-21T02:23:51;102420.28;;;17.45;87.83
71716;BME280;59568;52.128;5.434;2023-08-21T02:26:17;102426.34;;;17.46;87.21
71716;BME280;59568;52.128;5.434;2023-08-21T02:28:46;102427.13;;;17.46;87.08
71716;BME280;59568;52.128;5.434;2023-08-21T02:31:13;102434.00;;;17.47;86.35
71716;BME280;59568;52.128;5.434;2023-08-21T02:33:39;102426.84;;;17.48;86.88
71716;BME280;59568;52.128;5.434;2023-08-21T02:36:06;102420.78;;;17.47;87.54
71716;BME280;59568;52.128;5.434;2023-08-21T02:38:33;102422.34;;;17.48;86.97
71716;BME280;59568;52.128;5.434;2023-08-21T02:41:00;102417.53;;;17.50;87.02
71716;BME280;59568;52.128;5.434;2023-08-21T02:43:26;102418.13;;;17.47;87.42
71716;BME280;59568;52.128;5.434;2023-08-21T02:45:53;102431.06;;;17.49;86.94
71716;BME280;59568;52.128;5.434;2023-08-21T02:48:19;102428.22;;;17.45;86.79
71716;BME280;59568;52.128;5.434;2023-08-21T02:50:46;102428.69;;;17.47;86.39
71716;BME280;59568;52.128;5.434;2023-08-21T02:53:13;102427.63;;;17.48;86.55
71716;BME280;59568;52.128;5.434;2023-08-21T02:55:39;102430.56;;;17.47;86.92
71716;BME280;59568;52.128;5.434;2023-08-21T02:58:06;102434.00;;;17.47;87.39
71716;BME280;59568;52.128;5.434;2023-08-21T03:00:32;102432.13;;;17.48;87.07
71716;BME280;59568;52.128;5.434;2023-08-21T03:02:59;102430.84;;;17.45;87.33
71716;BME280;59568;52.128;5.434;2023-08-21T03:05:25;102424.78;;;17.45;87.31
71716;BME280;59568;52.128;5.434;2023-08-21T03:07:52;102425.56;;;17.45;87.42
71716;BME280;59568;52.128;5.434;2023-08-21T03:10:19;102425.09;;;17.43;87.12
71716;BME280;59568;52.128;5.434;2023-08-21T03:12:45;102426.94;;;17.43;87.02
71716;BME280;59568;52.128;5.434;2023-08-21T03:15:12;102428.22;;;17.45;87.89
71716;BME280;59568;52.128;5.434;2023-08-21T03:17:38;102433.00;;;17.43;87.10
71716;BME280;59568;52.128;5.434;2023-08-21T03:20:05;102431.16;;;17.44;87.43
71716;BME280;59568;52.128;5.434;2023-08-21T03:22:32;102433.78;;;17.44;87.40
71716;BME280;59568;52.128;5.434;2023-08-21T03:24:59;102436.16;;;17.45;87.27
71716;BME280;59568;52.128;5.434;2023-08-21T03:27:25;102430.84;;;17.45;87.02
71716;BME280;59568;52.128;5.434;2023-08-21T03:29:52;102430.84;;;17.45;87.72
71716;BME280;59568;52.128;5.434;2023-08-21T03:32:18;102436.44;;;17.44;88.47
71716;BME280;59568;52.128;5.434;2023-08-21T03:34:45;102428.28;;;17.40;88.00
71716;BME280;59568;52.128;5.434;2023-08-21T03:37:11;102424.59;;;17.41;88.38
71716;BME280;59568;52.128;5.434;2023-08-21T03:39:38;102430.44;;;17.38;87.59
71716;BME280;59568;52.128;5.434;2023-08-21T03:42:05;102426.25;;;17.37;87.95
71716;BME280;59568;52.128;5.434;2023-08-21T03:44:32;102415.19;;;17.35;87.78
71716;BME280;59568;52.128;5.434;2023-08-21T03:46:58;102421.06;;;17.32;87.57
71716;BME280;59568;52.128;5.434;2023-08-21T03:49:25;102415.00;;;17.31;87.54
71716;BME280;59568;52.128;5.434;2023-08-21T03:51:51;102412.63;;;17.30;87.65
71716;BME280;59568;52.128;5.434;2023-08-21T03:54:18;102418.69;;;17.30;87.64
71716;BME280;59568;52.128;5.434;2023-08-21T03:56:44;102416.38;;;17.29;88.42
71716;BME280;59568;52.128;5.434;2023-08-21T03:59:11;102416.94;;;17.26;88.18
71716;BME280;59568;52.128;5.434;2023-08-21T04:01:37;102419.09;;;17.24;88.53
71716;BME280;59568;52.128;5.434;2023-08-21T04:04:04;102421.53;;;17.20;88.25
71716;BME280;59568;52.128;5.434;2023-08-21T04:06:31;102413.91;;;17.19;88.32
71716;BME280;59568;52.128;5.434;2023-08-21T04:08:57;102414.97;;;17.17;88.21
71716;BME280;59568;52.128;5.434;2023-08-21T04:11:24;102416.56;;;17.19;88.08
71716;BME280;59568;52.128;5.434;2023-08-21T04:13:50;102412.31;;;17.17;88.41
71716;BME280;59568;52.128;5.434;2023-08-21T04:16:17;102429.25;;;17.16;88.29
71716;BME280;59568;52.128;5.434;2023-08-21T04:18:44;102426.91;;;17.15;88.94
71716;BME280;59568;52.128;5.434;2023-08-21T04:21:10;102438.03;;;17.12;88.80
71716;BME280;59568;52.128;5.434;2023-08-21T04:23:37;102433.84;;;17.11;88.77
71716;BME280;59568;52.128;5.434;2023-08-21T04:26:04;102434.13;;;17.09;88.37
71716;BME280;59568;52.128;5.434;2023-08-21T04:28:31;102444.69;;;17.09;88.47
71716;BME280;59568;52.128;5.434;2023-08-21T04:30:58;102440.50;;;17.08;88.49
71716;BME280;59568;52.128;5.434;2023-08-21T04:33:28;102436.00;;;17.09;88.24
71716;BME280;59568;52.128;5.434;2023-08-21T04:35:55;102430.22;;;17.07;88.89
71716;BME280;59568;52.128;5.434;2023-08-21T04:38:22;102428.34;;;17.07;89.22
71716;BME280;59568;52.128;5.434;2023-08-21T04:40:48;102427.56;;;17.07;89.03
71716;BME280;59568;52.128;5.434;2023-08-21T04:43:15;102432.56;;;17.08;88.57
71716;BME280;59568;52.128;5.434;2023-08-21T04:45:48;102433.16;;;17.05;88.68
71716;BME280;59568;52.128;5.434;2023-08-21T04:48:16;102439.47;;;17.04;89.07
71716;BME280;59568;52.128;5.434;2023-08-21T04:50:42;102426.09;;;17.01;88.94
71716;BME280;59568;52.128;5.434;2023-08-21T04:53:09;102438.00;;;16.98;88.56
71716;BME280;59568;52.128;5.434;2023-08-21T04:55:35;102439.59;;;16.99;88.94
71716;BME280;59568;52.128;5.434;2023-08-21T04:58:03;102435.28;;;17.03;89.22
71716;BME280;59568;52.128;5.434;2023-08-21T05:00:30;102432.16;;;17.01;89.72
71716;BME280;59568;52.128;5.434;2023-08-21T05:02:57;102441.72;;;16.97;90.58
71716;BME280;59568;52.128;5.434;2023-08-21T05:05:24;102440.16;;;16.96;90.18
71716;BME280;59568;52.128;5.434;2023-08-21T05:07:52;102449.94;;;16.95;90.44
71716;BME280;59568;52.128;5.434;2023-08-21T05:10:19;102454.94;;;16.97;90.01
71716;BME280;59568;52.128;5.434;2023-08-21T05:12:46;102458.56;;;17.01;90.11
71716;BME280;59568;52.128;5.434;2023-08-21T05:15:13;102455.06;;;17.06;89.84
71716;BME280;59568;52.128;5.434;2023-08-21T05:17:40;102457.63;;;17.11;90.07
71716;BME280;59568;52.128;5.434;2023-08-21T05:20:08;102457.81;;;17.14;89.52
71716;BME280;59568;52.128;5.434;2023-08-21T05:22:35;102460.38;;;17.20;89.83
71716;BME280;59568;52.128;5.434;2023-08-21T05:25:02;102463.72;;;17.25;89.86
71716;BME280;59568;52.128;5.434;2023-08-21T05:27:28;102461.28;;;17.29;91.05
71716;BME280;59568;52.128;5.434;2023-08-21T05:29:55;102453.84;;;17.31;90.59
71716;BME280;59568;52.128;5.434;2023-08-21T05:32:21;102454.53;;;17.36;90.61
71716;BME280;59568;52.128;5.434;2023-08-21T05:34:48;102458.44;;;17.39;89.86
71716;BME280;59568;52.128;5.434;2023-08-21T05:37:14;102458.44;;;17.39;89.62
71716;BME280;59568;52.128;5.434;2023-08-21T05:39:41;102464.50;;;17.40;90.13
71716;BME280;59568;52.128;5.434;2023-08-21T05:42:07;102462.66;;;17.40;89.61
71716;BME280;59568;52.128;5.434;2023-08-21T05:44:34;102452.56;;;17.42;89.90
71716;BME280;59568;52.128;5.434;2023-08-21T05:47:00;102464.53;;;17.53;90.86
71716;BME280;59568;52.128;5.434;2023-08-21T05:49:27;102469.72;;;17.72;90.53
71716;BME280;59568;52.128;5.434;2023-08-21T05:51:55;102465.44;;;17.90;90.93
71716;BME280;59568;52.128;5.434;2023-08-21T05:54:22;102462.78;;;18.04;91.34
71716;BME280;59568;52.128;5.434;2023-08-21T05:56:49;102456.09;;;18.21;90.38
71716;BME280;59568;52.128;5.434;2023-08-21T05:59:27;102463.13;;;18.39;90.91
71716;BME280;59568;52.128;5.434;2023-08-21T06:01:56;102467.47;;;18.58;90.83
71716;BME280;59568;52.128;5.434;2023-08-21T06:04:23;102470.06;;;18.71;90.95
71716;BME280;59568;52.128;5.434;2023-08-21T06:06:51;102466.59;;;18.85;91.06
71716;BME280;59568;52.128;5.434;2023-08-21T06:09:17;102465.09;;;18.92;90.58
71716;BME280;59568;52.128;5.434;2023-08-21T06:11:44;102464.25;;;19.06;91.20
71716;BME280;59568;52.128;5.434;2023-08-21T06:14:10;102462.59;;;19.19;91.14
71716;BME280;59568;52.128;5.434;2023-08-21T06:16:37;102467.78;;;19.32;91.24
71716;BME280;59568;52.128;5.434;2023-08-21T06:19:03;102467.22;;;19.44;90.95
71716;BME280;59568;52.128;5.434;2023-08-21T06:21:30;102467.56;;;19.51;90.77
71716;BME280;59568;52.128;5.434;2023-08-21T06:23:56;102466.19;;;19.54;90.14
71716;BME280;59568;52.128;5.434;2023-08-21T06:26:23;102471.25;;;19.73;90.70
71716;BME280;59568;52.128;5.434;2023-08-21T06:28:50;102474.91;;;19.94;90.24
71716;BME280;59568;52.128;5.434;2023-08-21T06:31:17;102477.44;;;20.08;88.90
71716;BME280;59568;52.128;5.434;2023-08-21T06:33:44;102475.72;;;20.30;88.96
71716;BME280;59568;52.128;5.434;2023-08-21T06:36:11;102471.50;;;20.46;89.05
71716;BME280;59568;52.128;5.434;2023-08-21T06:38:37;102472.28;;;20.47;87.22
71716;BME280;59568;52.128;5.434;2023-08-21T06:41:03;102477.75;;;20.33;86.06
71716;BME280;59568;52.128;5.434;2023-08-21T06:43:37;102472.13;;;20.26;85.85
71716;BME280;59568;52.128;5.434;2023-08-21T06:46:07;102480.56;;;20.28;87.26
71716;BME280;59568;52.128;5.434;2023-08-21T06:48:37;102474.78;;;20.52;88.29
71716;BME280;59568;52.128;5.434;2023-08-21T06:51:05;102472.16;;;20.61;87.30
71716;BME280;59568;52.128;5.434;2023-08-21T06:53:32;102479.78;;;20.80;87.99
71716;BME280;59568;52.128;5.434;2023-08-21T06:55:58;102470.06;;;21.01;86.87
71716;BME280;59568;52.128;5.434;2023-08-21T06:58:25;102478.28;;;21.26;85.86
71716;BME280;59568;52.128;5.434;2023-08-21T07:00:53;102476.50;;;21.39;83.37
71716;BME280;59568;52.128;5.434;2023-08-21T07:03:20;102480.53;;;21.53;84.86
71716;BME280;59568;52.128;5.434;2023-08-21T07:05:53;102486.56;;;21.71;84.30
71716;BME280;59568;52.128;5.434;2023-08-21T07:08:20;102482.63;;;21.69;82.35
71716;BME280;59568;52.128;5.434;2023-08-21T07:10:47;102486.47;;;21.59;82.05
71716;BME280;59568;52.128;5.434;2023-08-21T07:13:13;102479.22;;;21.68;82.57
71716;BME280;59568;52.128;5.434;2023-08-21T07:15:40;102483.56;;;21.73;81.28
71716;BME280;59568;52.128;5.434;2023-08-21T07:18:06;102486.22;;;21.73;82.24
71716;BME280;59568;52.128;5.434;2023-08-21T07:20:34;102480.75;;;21.99;81.73
71716;BME280;59568;52.128;5.434;2023-08-21T07:23:01;102483.38;;;22.29;79.59
71716;BME280;59568;52.128;5.434;2023-08-21T07:25:27;102479.63;;;22.30;77.04
71716;BME280;59568;52.128;5.434;2023-08-21T07:27:57;102492.16;;;22.29;78.65
71716;BME280;59568;52.128;5.434;2023-08-21T07:30:25;102485.59;;;22.27;79.63
71716;BME280;59568;52.128;5.434;2023-08-21T07:32:53;102485.16;;;22.46;80.06
71716;BME280;59568;52.128;5.434;2023-08-21T07:35:20;102488.44;;;22.64;79.00
71716;BME280;59568;52.128;5.434;2023-08-21T07:37:47;102482.16;;;22.81;77.87
71716;BME280;59568;52.128;5.434;2023-08-21T07:40:13;102485.75;;;22.97;76.97
71716;BME280;59568;52.128;5.434;2023-08-21T07:42:40;102486.47;;;23.06;76.31
71716;BME280;59568;52.128;5.434;2023-08-21T07:45:07;102491.44;;;23.08;75.89
71716;BME280;59568;52.128;5.434;2023-08-21T07:47:33;102486.03;;;23.04;74.22
71716;BME280;59568;52.128;5.434;2023-08-21T07:50:03;102488.47;;;23.09;73.55
71716;BME280;59568;52.128;5.434;2023-08-21T07:52:29;102487.59;;;23.30;72.66
71716;BME280;59568;52.128;5.434;2023-08-21T07:54:56;102485.41;;;23.57;73.26
71716;BME280;59568;52.128;5.434;2023-08-21T07:57:23;102490.03;;;23.60;74.21
71716;BME280;59568;52.128;5.434;2023-08-21T07:59:49;102499.81;;;23.68;73.46
71716;BME280;59568;52.128;5.434;2023-08-21T08:02:16;102492.63;;;23.68;74.43
71716;BME280;59568;52.128;5.434;2023-08-21T08:04:43;102500.72;;;23.97;73.94
71716;BME280;59568;52.128;5.434;2023-08-21T08:07:10;102486.47;;;24.05;73.55
71716;BME280;59568;52.128;5.434;2023-08-21T08:09:36;102491.00;;;24.04;72.24
71716;BME280;59568;52.128;5.434;2023-08-21T08:12:03;102491.66;;;24.13;73.20
71716;BME280;59568;52.128;5.434;2023-08-21T08:14:35;102498.63;;;24.30;70.76
71716;BME280;59568;52.128;5.434;2023-08-21T08:17:01;102490.41;;;24.23;68.45
71716;BME280;59568;52.128;5.434;2023-08-21T08:19:28;102497.56;;;24.19;69.11
71716;BME280;59568;52.128;5.434;2023-08-21T08:21:54;102503.25;;;24.05;69.84
71716;BME280;59568;52.128;5.434;2023-08-21T08:24:21;102505.97;;;23.81;70.83
71716;BME280;59568;52.128;5.434;2023-08-21T08:26:47;102512.50;;;23.71;71.48
71716;BME280;59568;52.128;5.434;2023-08-21T08:29:14;102504.06;;;23.69;72.16
71716;BME280;59568;52.128;5.434;2023-08-21T08:31:40;102501.59;;;23.88;72.27
71716;BME280;59568;52.128;5.434;2023-08-21T08:34:07;102493.16;;;23.99;71.29
71716;BME280;59568;52.128;5.434;2023-08-21T08:36:34;102497.22;;;24.08;71.86
71716;BME280;59568;52.128;5.434;2023-08-21T08:39:01;102500.72;;;24.37;70.31
71716;BME280;59568;52.128;5.434;2023-08-21T08:41:44;102499.34;;;24.56;69.32
71716;BME280;59568;52.128;5.434;2023-08-21T08:44:15;102503.34;;;24.78;66.54
71716;BME280;59568;52.128;5.434;2023-08-21T08:46:43;102511.06;;;24.95;69.34
71716;BME280;59568;52.128;5.434;2023-08-21T08:49:09;102507.09;;;25.21;67.71
71716;BME280;59568;52.128;5.434;2023-08-21T08:51:38;102505.31;;;25.25;68.80
71716;BME280;59568;52.128;5.434;2023-08-21T08:54:06;102522.31;;;25.33;68.84
71716;BME280;59568;52.128;5.434;2023-08-21T08:56:33;102515.41;;;25.47;68.23
71716;BME280;59568;52.128;5.434;2023-08-21T08:59:00;102499.69;;;25.62;64.63
71716;BME280;59568;52.128;5.434;2023-08-21T09:01:27;102498.00;;;25.73;66.04
71716;BME280;59568;52.128;5.434;2023-08-21T09:03:53;102505.00;;;25.78;66.73
71716;BME280;59568;52.128;5.434;2023-08-21T09:06:20;102500.31;;;25.90;66.42
71716;BME280;59568;52.128;5.434;2023-08-21T09:08:54;102501.03;;;26.07;66.63
71716;BME280;59568;52.128;5.434;2023-08-21T09:11:21;102488.34;;;26.23;64.99
71716;BME280;59568;52.128;5.434;2023-08-21T09:13:53;102494.06;;;26.22;65.80
71716;BME280;59568;52.128;5.434;2023-08-21T09:16:21;102494.56;;;26.27;63.44
71716;BME280;59568;52.128;5.434;2023-08-21T09:18:49;102498.50;;;26.34;65.63
71716;BME280;59568;52.128;5.434;2023-08-21T09:21:20;102500.19;;;26.42;65.29
71716;BME280;59568;52.128;5.434;2023-08-21T09:23:48;102495.97;;;26.60;66.12
71716;BME280;59568;52.128;5.434;2023-08-21T09:26:20;102500.16;;;26.81;64.68
71716;BME280;59568;52.128;5.434;2023-08-21T09:28:51;102497.72;;;26.95;64.40
71716;BME280;59568;52.128;5.434;2023-08-21T09:31:29;102499.81;;;27.05;64.65
71716;BME280;59568;52.128;5.434;2023-08-21T09:34:02;102492.88;;;27.04;63.07
71716;BME280;59568;52.128;5.434;2023-08-21T09:36:32;102494.44;;;27.05;63.25
71716;BME280;59568;52.128;5.434;2023-08-21T09:39:00;102497.28;;;27.16;60.89
71716;BME280;59568;52.128;5.434;2023-08-21T09:41:27;102490.16;;;27.24;61.62
71716;BME280;59568;52.128;5.434;2023-08-21T09:43:58;102484.97;;;27.35;62.23
71716;BME280;59568;52.128;5.434;2023-08-21T09:46:26;102490.34;;;27.38;59.40
71716;BME280;59568;52.128;5.434;2023-08-21T09:48:53;102482.72;;;27.40;58.54
71716;BME280;59568;52.128;5.434;2023-08-21T09:51:20;102477.00;;;27.42;59.03
71716;BME280;59568;52.128;5.434;2023-08-21T09:53:48;102483.44;;;27.37;59.23
71716;BME280;59568;52.128;5.434;2023-08-21T09:56:19;102475.94;;;27.50;58.49
71716;BME280;59568;52.128;5.434;2023-08-21T09:58:47;102478.50;;;27.39;55.87
71716;BME280;59568;52.128;5.434;2023-08-21T10:01:16;102472.13;;;27.24;58.25
71716;BME280;59568;52.128;5.434;2023-08-21T10:03:44;102475.03;;;27.39;57.11
71716;BME280;59568;52.128;5.434;2023-08-21T10:06:16;102470.63;;;27.54;54.88
71716;BME280;59568;52.128;5.434;2023-08-21T10:08:51;102477.72;;;27.65;60.26
71716;BME280;59568;52.128;5.434;2023-08-21T10:11:20;102472.97;;;27.85;59.63
71716;BME280;59568;52.128;5.434;2023-08-21T10:13:48;102473.06;;;27.93;60.31
71716;BME280;59568;52.128;5.434;2023-08-21T10:16:17;102467.25;;;28.17;58.34
71716;BME280;59568;52.128;5.434;2023-08-21T10:18:45;102460.38;;;28.23;59.14
71716;BME280;59568;52.128;5.434;2023-08-21T10:21:17;102459.19;;;28.17;56.83
71716;BME280;59568;52.128;5.434;2023-08-21T10:23:48;102457.69;;;28.23;54.83
71716;BME280;59568;52.128;5.434;2023-08-21T10:26:37;102459.31;;;28.32;57.14
71716;BME280;59568;52.128;5.434;2023-08-21T10:29:06;102462.81;;;28.36;58.39
71716;BME280;59568;52.128;5.434;2023-08-21T10:31:35;102458.00;;;28.52;58.43
71716;BME280;59568;52.128;5.434;2023-08-21T10:34:06;102465.88;;;28.72;57.22
71716;BME280;59568;52.128;5.434;2023-08-21T10:39:27;102464.97;;;28.57;53.76
71716;BME280;59568;52.128;5.434;2023-08-21T10:41:58;102462.34;;;28.64;57.44
71716;BME280;59568;52.128;5.434;2023-08-21T10:49:55;102461.44;;;28.97;53.88
71716;BME280;59568;52.128;5.434;2023-08-21T10:52:27;102471.41;;;28.93;55.13
71716;BME280;59568;52.128;5.434;2023-08-21T10:54:55;102469.84;;;28.88;56.63
71716;BME280;59568;52.128;5.434;2023-08-21T10:57:26;102472.88;;;28.83;56.46
71716;BME280;59568;52.128;5.434;2023-08-21T11:00:02;102462.13;;;28.87;56.46
71716;BME280;59568;52.128;5.434;2023-08-21T11:02:36;102463.59;;;28.77;52.37
71716;BME280;59568;52.128;5.434;2023-08-21T11:05:04;102458.53;;;28.68;53.32
71716;BME280;59568;52.128;5.434;2023-08-21T11:07:36;102467.75;;;28.30;52.69
71716;BME280;59568;52.128;5.434;2023-08-21T11:10:06;102462.88;;;28.43;55.59
71716;BME280;59568;52.128;5.434;2023-08-21T11:12:37;102459.72;;;28.75;53.97
71716;BME280;59568;52.128;5.434;2023-08-21T11:15:03;102456.88;;;29.05;55.69
71716;BME280;59568;52.128;5.434;2023-08-21T11:17:30;102463.66;;;29.40;53.49
71716;BME280;59568;52.128;5.434;2023-08-21T11:20:00;102459.09;;;29.44;53.13
71716;BME280;59568;52.128;5.434;2023-08-21T11:22:28;102457.63;;;29.61;53.57
71716;BME280;59568;52.128;5.434;2023-08-21T11:24:56;102453.03;;;29.65;46.48
71716;BME280;59568;52.128;5.434;2023-08-21T11:27:23;102454.94;;;29.61;53.93
71716;BME280;59568;52.128;5.434;2023-08-21T11:29:51;102453.47;;;29.78;51.62
71716;BME280;59568;52.128;5.434;2023-08-21T11:32:20;102452.75;;;29.84;52.46
71716;BME280;59568;52.128;5.434;2023-08-21T11:34:53;102454.31;;;29.93;54.30
71716;BME280;59568;52.128;5.434;2023-08-21T11:37:23;102456.28;;;30.03;53.27
71716;BME280;59568;52.128;5.434;2023-08-21T11:39:57;102453.59;;;30.03;51.22
71716;BME280;59568;52.128;5.434;2023-08-21T11:42:32;102459.75;;;30.07;50.22
71716;BME280;59568;52.128;5.434;2023-08-21T11:45:01;102457.06;;;30.07;46.33
71716;BME280;59568;52.128;5.434;2023-08-21T11:47:35;102456.66;;;30.01;52.06
71716;BME280;59568;52.128;5.434;2023-08-21T11:50:04;102452.84;;;30.27;50.80
71716;BME280;59568;52.128;5.434;2023-08-21T11:52:31;102448.63;;;30.26;47.60
71716;BME280;59568;52.128;5.434;2023-08-21T11:54:58;102444.00;;;30.23;48.61
71716;BME280;59568;52.128;5.434;2023-08-21T11:57:25;102439.75;;;30.26;50.17
71716;BME280;59568;52.128;5.434;2023-08-21T11:59:53;102442.88;;;30.35;47.73
71716;BME280;59568;52.128;5.434;2023-08-21T12:02:24;102436.72;;;30.56;51.61
71716;BME280;59568;52.128;5.434;2023-08-21T12:05:04;102440.22;;;30.53;47.55
71716;BME280;59568;52.128;5.434;2023-08-21T12:07:32;102441.38;;;30.59;48.65
71716;BME280;59568;52.128;5.434;2023-08-21T12:09:59;102444.81;;;30.78;52.80
71716;BME280;59568;52.128;5.434;2023-08-21T12:12:25;102441.75;;;30.83;50.73
71716;BME280;59568;52.128;5.434;2023-08-21T12:14:52;102438.66;;;30.81;48.57
71716;BME280;59568;52.128;5.434;2023-08-21T12:17:19;102442.91;;;30.75;49.12
71716;BME280;59568;52.128;5.434;2023-08-21T12:19:45;102437.50;;;30.71;46.32
71716;BME280;59568;52.128;5.434;2023-08-21T12:22:12;102443.28;;;30.77;49.74
71716;BME280;59568;52.128;5.434;2023-08-21T12:24:38;102435.19;;;30.80;46.91
71716;BME280;59568;52.128;5.434;2023-08-21T12:27:06;102426.69;;;30.85;42.20
71716;BME280;59568;52.128;5.434;2023-08-21T12:29:34;102432.50;;;30.66;44.14
71716;BME280;59568;52.128;5.434;2023-08-21T12:32:01;102422.47;;;30.66;45.14
71716;BME280;59568;52.128;5.434;2023-08-21T12:34:29;102429.41;;;30.82;48.66
71716;BME280;59568;52.128;5.434;2023-08-21T12:36:55;102434.41;;;30.94;49.63
71716;BME280;59568;52.128;5.434;2023-08-21T12:39:22;102424.38;;;30.98;47.45
71716;BME280;59568;52.128;5.434;2023-08-21T12:41:49;102425.94;;;30.85;47.61
71716;BME280;59568;52.128;5.434;2023-08-21T12:44:15;102418.22;;;30.91;45.71
71716;BME280;59568;52.128;5.434;2023-08-21T12:46:42;102417.84;;;30.92;48.23
71716;BME280;59568;52.128;5.434;2023-08-21T12:49:09;102413.59;;;30.98;47.09
71716;BME280;59568;52.128;5.434;2023-08-21T12:51:35;102415.91;;;30.96;42.02
71716;BME280;59568;52.128;5.434;2023-08-21T12:54:02;102409.75;;;30.78;49.14
71716;BME280;59568;52.128;5.434;2023-08-21T12:56:29;102418.63;;;30.71;43.14
71716;BME280;59568;52.128;5.434;2023-08-21T12:58:55;102420.53;;;30.38;43.96
71716;BME280;59568;52.128;5.434;2023-08-21T13:01:22;102418.50;;;29.92;45.52
71716;BME280;59568;52.128;5.434;2023-08-21T13:03:48;102415.25;;;29.47;50.13